This is the latest recevied weather packets stored in our database for station/object K3MV-13. If no packets are shown the sender has not sent any weather packets the latest 10 day(s).
| Time | Temp. | Humidity | Pressure | Rain* | Wind** | Luminosity | Snow |
|---|---|---|---|---|---|---|---|
| 1777100294 | 12.78° C | 80% | 1008.7 hPa | 0 mm | - | 0 W/m² | - |
| 1777099992 | 12.78° C | 80% | 1008.7 hPa | 0 mm | - | 0 W/m² | - |
| 1777099688 | 12.78° C | 80% | 1008.9 hPa | 0 mm | - | 0 W/m² | - |
| 1777099383 | 12.78° C | 80% | 1008.9 hPa | 0 mm | - | 0 W/m² | - |
| 1777099081 | 12.78° C | 79% | 1008.8 hPa | 0 mm | - | 0 W/m² | - |
| 1777098778 | 12.22° C | 80% | 1008.7 hPa | 0 mm | - | 0 W/m² | - |
| 1777098478 | 12.22° C | 81% | 1008.7 hPa | 0 mm | - | 0 W/m² | - |
| 1777098175 | 11.67° C | 82% | 1008.9 hPa | 0 mm | - | 0 W/m² | - |
| 1777097873 | 12.22° C | 79% | 1008.9 hPa | 0 mm | - | 0 W/m² | - |
| 1777097570 | 12.22° C | 79% | 1008.9 hPa | 0 mm | - | 0 W/m² | - |
| 1777097267 | 12.22° C | 80% | 1009.1 hPa | 0 mm | - | 0 W/m² | - |
| 1777096964 | 12.22° C | 80% | 1009.2 hPa | 0 mm | - | 0 W/m² | - |
| 1777096664 | 12.78° C | 78% | 1009.2 hPa | 0 mm | - | 0 W/m² | - |
| 1777096358 | 12.22° C | 79% | 1009.5 hPa | 0 mm | - | 0 W/m² | - |
| 1777096058 | 11.67° C | 81% | 1009.3 hPa | 0 mm | - | 0 W/m² | - |
| 1777095755 | 12.22° C | 80% | 1009.5 hPa | 0 mm | - | 0 W/m² | - |
| 1777095452 | 12.22° C | 79% | 1009.3 hPa | 0 mm | - | 0 W/m² | - |
| 1777095147 | 12.22° C | 79% | 1009.5 hPa | 0 mm | - | 0 W/m² | - |
| 1777094844 | 11.67° C | 83% | 1009.6 hPa | 0 mm | - | 0 W/m² | - |
| 1777094538 | 11.67° C | 83% | 1009.7 hPa | 0 mm | - | 0 W/m² | - |
| 1777094237 | 11.67° C | 81% | 1009.7 hPa | 0 mm | - | 0 W/m² | - |
| 1777093932 | 12.78° C | 78% | 1009.5 hPa | 0 mm | - | 0 W/m² | - |
| 1777093628 | 13.33° C | 77% | 1009.7 hPa | 0 mm | - | 0 W/m² | - |
| 1777093325 | 12.78° C | 78% | 1009.7 hPa | 0 mm | - | 0 W/m² | - |
| 1777093020 | 12.78° C | 77% | 1009.8 hPa | 0 mm | - | 0 W/m² | - |
* Rain latest hour (hover to see other rain measurements)
** Current wind speed in m/s (hover to see current wind gust speed)